createdAt,value
2023-05-16T00:00:42.928Z,0.00
2023-05-16T00:01:42.959Z,0.00
2023-05-16T00:02:43.010Z,0.00
2023-05-16T00:03:42.975Z,0.00
2023-05-16T00:04:42.876Z,0.00
2023-05-16T00:05:42.859Z,0.00
2023-05-16T00:06:42.857Z,0.00
2023-05-16T00:07:42.840Z,0.00
2023-05-16T00:08:42.837Z,0.00
2023-05-16T00:09:42.817Z,0.00
2023-05-16T00:10:42.816Z,0.00
2023-05-16T00:11:42.797Z,0.00
2023-05-16T00:12:42.785Z,0.00
2023-05-16T00:13:42.777Z,0.00
2023-05-16T00:14:42.761Z,0.00
2023-05-16T00:15:42.747Z,0.00
2023-05-16T00:16:42.815Z,0.00
2023-05-16T00:17:42.776Z,0.00
2023-05-16T00:18:42.768Z,0.00
2023-05-16T00:19:42.706Z,0.00
2023-05-16T00:20:42.895Z,0.00
2023-05-16T00:21:42.679Z,0.00
2023-05-16T00:22:42.674Z,0.00
2023-05-16T00:23:42.655Z,0.00
2023-05-16T00:24:42.646Z,0.00
2023-05-16T00:25:42.638Z,0.00
2023-05-16T00:26:42.624Z,0.00
2023-05-16T00:27:42.612Z,0.00
2023-05-16T00:28:42.602Z,0.00
2023-05-16T00:29:42.589Z,0.00
2023-05-16T00:30:42.581Z,0.00
2023-05-16T00:31:42.633Z,0.00
2023-05-16T00:32:42.618Z,0.00
2023-05-16T00:33:42.565Z,0.00
2023-05-16T00:34:42.563Z,0.00
2023-05-16T00:35:42.518Z,0.00
2023-05-16T00:36:42.513Z,0.00
2023-05-16T00:38:42.484Z,0.00
2023-05-16T00:39:42.472Z,0.00
2023-05-16T00:40:42.461Z,0.00
2023-05-16T00:41:42.454Z,0.00
2023-05-16T00:42:42.435Z,0.00
2023-05-16T00:43:42.440Z,0.00
2023-05-16T00:44:42.417Z,0.00
2023-05-16T00:45:42.407Z,0.00
2023-05-16T00:46:42.613Z,0.00
2023-05-16T00:47:42.420Z,0.00
2023-05-16T00:48:42.369Z,0.00
2023-05-16T00:49:42.383Z,0.00
2023-05-16T00:50:42.346Z,0.00
2023-05-16T00:51:42.342Z,0.00
2023-05-16T00:52:42.320Z,0.00
2023-05-16T00:53:42.317Z,0.00
2023-05-16T00:54:42.312Z,0.00
2023-05-16T00:55:42.299Z,0.00
2023-05-16T00:56:42.280Z,0.00
2023-05-16T00:57:42.280Z,0.00
2023-05-16T00:58:42.254Z,0.00
2023-05-16T00:59:42.246Z,0.00
2023-05-16T01:00:42.251Z,0.00
2023-05-16T01:01:42.292Z,0.00
2023-05-16T01:02:42.304Z,0.00
2023-05-16T01:03:42.265Z,0.00
2023-05-16T01:04:42.194Z,0.00
2023-05-16T01:05:42.194Z,0.00
2023-05-16T01:06:42.166Z,0.00
2023-05-16T01:07:42.154Z,0.00
2023-05-16T01:08:42.136Z,0.00
2023-05-16T01:09:42.132Z,0.00
2023-05-16T01:10:42.112Z,0.00
2023-05-16T01:11:42.104Z,0.00
2023-05-16T01:12:42.088Z,0.00
2023-05-16T01:13:42.102Z,0.00
2023-05-16T01:14:42.069Z,0.00
2023-05-16T01:15:42.079Z,0.00
2023-05-16T01:16:42.115Z,0.00
2023-05-16T01:17:42.063Z,0.00
2023-05-16T01:18:42.045Z,0.00
2023-05-16T01:19:42.025Z,0.00
2023-05-16T01:20:41.999Z,0.00
2023-05-16T01:21:42.009Z,0.00
2023-05-16T01:22:41.972Z,0.00
2023-05-16T01:23:41.961Z,0.00
2023-05-16T01:24:41.953Z,0.00
2023-05-16T01:25:41.936Z,0.00
2023-05-16T01:26:41.939Z,0.00
2023-05-16T01:27:41.927Z,0.00
2023-05-16T01:28:41.927Z,0.00
2023-05-16T01:29:41.911Z,0.00
2023-05-16T01:30:41.877Z,0.00
2023-05-16T01:31:41.949Z,0.00
2023-05-16T01:32:41.938Z,0.00
2023-05-16T01:33:41.847Z,0.00
2023-05-16T01:34:41.835Z,0.00
2023-05-16T01:35:41.846Z,0.00
2023-05-16T01:36:41.817Z,0.00
2023-05-16T01:37:41.826Z,0.00
2023-05-16T01:38:41.826Z,0.00
2023-05-16T01:39:41.778Z,0.00
2023-05-16T01:40:41.763Z,0.00
2023-05-16T01:41:41.752Z,0.00
2023-05-16T01:42:41.738Z,0.00
2023-05-16T01:43:41.731Z,0.00
2023-05-16T01:44:41.715Z,0.00
2023-05-16T01:45:41.713Z,0.00
2023-05-16T01:46:41.757Z,0.00
2023-05-16T01:47:41.756Z,0.00
2023-05-16T01:48:41.674Z,0.00
2023-05-16T01:49:41.707Z,0.00
2023-05-16T01:50:41.646Z,0.00
2023-05-16T01:51:41.637Z,0.00
2023-05-16T01:52:41.633Z,0.00
2023-05-16T01:53:41.649Z,0.00
2023-05-16T01:54:41.600Z,0.00
2023-05-16T01:55:41.591Z,0.00
2023-05-16T01:56:41.592Z,0.00
2023-05-16T01:57:41.572Z,0.00
2023-05-16T01:58:41.554Z,0.00
2023-05-16T01:59:41.545Z,0.00
2023-05-16T02:00:41.613Z,0.00
2023-05-16T02:01:41.660Z,0.00
2023-05-16T02:02:41.625Z,0.00
2023-05-16T02:03:41.626Z,0.00
2023-05-16T02:04:41.485Z,0.00
2023-05-16T02:05:41.488Z,0.00
2023-05-16T02:06:41.463Z,0.00
2023-05-16T02:07:41.450Z,0.00
2023-05-16T02:08:41.455Z,0.00
2023-05-16T02:09:41.448Z,0.00
2023-05-16T02:10:41.423Z,0.00
2023-05-16T02:11:41.407Z,0.00
2023-05-16T02:12:41.393Z,0.00
2023-05-16T02:13:41.383Z,0.00
2023-05-16T02:14:41.406Z,0.00
2023-05-16T02:15:41.366Z,0.00
2023-05-16T02:16:41.392Z,0.00
2023-05-16T02:17:41.395Z,0.00
2023-05-16T02:18:41.363Z,0.00
2023-05-16T02:19:41.312Z,0.00
2023-05-16T02:20:41.324Z,0.00
2023-05-16T02:21:41.307Z,0.00
2023-05-16T02:22:41.277Z,0.00
2023-05-16T02:23:41.269Z,0.00
2023-05-16T02:24:41.296Z,0.00
2023-05-16T02:25:41.338Z,0.00
2023-05-16T02:26:41.261Z,0.00
2023-05-16T02:27:41.233Z,0.00
2023-05-16T02:28:41.214Z,0.00
2023-05-16T02:29:41.226Z,0.00
2023-05-16T02:30:41.216Z,0.00
2023-05-16T02:31:41.352Z,0.00
2023-05-16T02:32:41.303Z,0.00
2023-05-16T02:33:41.152Z,0.00
2023-05-16T02:34:41.153Z,0.00
2023-05-16T02:35:41.145Z,0.00
2023-05-16T02:36:41.122Z,0.00
2023-05-16T02:37:41.105Z,0.00
2023-05-16T02:38:41.109Z,0.00
2023-05-16T02:39:41.119Z,0.00
2023-05-16T02:40:41.088Z,0.00
2023-05-16T02:41:41.078Z,0.00
2023-05-16T02:42:41.043Z,0.00
2023-05-16T02:43:41.032Z,0.00
2023-05-16T02:44:41.037Z,0.00
2023-05-16T02:45:41.063Z,0.00
2023-05-16T02:46:41.108Z,0.00
2023-05-16T02:47:41.060Z,0.00
2023-05-16T02:48:40.974Z,0.00
2023-05-16T02:49:40.962Z,0.00
2023-05-16T02:50:40.964Z,0.00
2023-05-16T02:51:40.940Z,0.00
2023-05-16T02:52:40.947Z,0.00
2023-05-16T02:53:40.924Z,0.00
2023-05-16T02:54:40.916Z,0.00
2023-05-16T02:55:41.021Z,0.00
2023-05-16T02:56:40.877Z,0.00
2023-05-16T02:57:40.899Z,0.00
2023-05-16T02:58:40.865Z,0.00
2023-05-16T02:59:40.851Z,0.00
2023-05-16T03:00:40.844Z,0.00
2023-05-16T03:01:40.839Z,0.00
2023-05-16T03:02:40.883Z,0.00
2023-05-16T03:03:40.857Z,0.00
2023-05-16T03:04:40.782Z,0.00
2023-05-16T03:05:40.778Z,0.00
2023-05-16T03:06:40.758Z,0.00
2023-05-16T03:07:40.754Z,0.00
2023-05-16T03:08:40.745Z,0.00
2023-05-16T03:09:40.738Z,0.00
2023-05-16T03:10:40.714Z,0.00
2023-05-16T03:11:40.706Z,0.00
2023-05-16T03:12:40.714Z,0.00
2023-05-16T03:13:40.713Z,0.00
2023-05-16T03:14:40.668Z,0.00
2023-05-16T03:15:40.665Z,0.00
2023-05-16T03:16:40.669Z,0.00
2023-05-16T03:17:40.694Z,0.00
2023-05-16T03:18:40.669Z,0.00
2023-05-16T03:19:40.618Z,0.00
2023-05-16T03:20:40.600Z,0.00
2023-05-16T03:21:40.587Z,0.00
2023-05-16T03:22:40.658Z,0.00
2023-05-16T03:23:40.582Z,0.00
2023-05-16T03:24:40.571Z,0.00
2023-05-16T03:25:40.543Z,0.00
2023-05-16T03:26:40.528Z,0.00
2023-05-16T03:27:40.518Z,0.00
2023-05-16T03:28:40.505Z,4.00
2023-05-16T03:29:40.507Z,4.00
2023-05-16T03:30:40.484Z,0.00
2023-05-16T03:31:40.538Z,4.00
2023-05-16T03:32:40.489Z,4.00
2023-05-16T03:33:40.459Z,4.00
2023-05-16T03:34:40.434Z,4.00
2023-05-16T03:35:40.422Z,4.00
2023-05-16T03:36:40.413Z,4.00
2023-05-16T03:37:40.399Z,4.00
2023-05-16T03:38:40.383Z,8.00
2023-05-16T03:39:40.384Z,4.00
2023-05-16T03:40:40.360Z,8.00
2023-05-16T03:41:40.352Z,8.00
2023-05-16T03:42:40.332Z,8.00
2023-05-16T03:43:40.327Z,8.00
2023-05-16T03:44:40.329Z,8.00
2023-05-16T03:45:40.330Z,12.00
2023-05-16T03:46:40.288Z,8.00
2023-05-16T03:47:40.501Z,12.00
2023-05-16T03:48:40.279Z,12.00
2023-05-16T03:49:40.255Z,12.00
2023-05-16T03:50:41.197Z,16.00
2023-05-16T03:51:40.233Z,16.00
2023-05-16T03:52:40.220Z,20.00
2023-05-16T03:53:40.224Z,20.00
2023-05-16T03:54:40.190Z,28.00
2023-05-16T03:55:40.180Z,28.00
2023-05-16T03:56:40.168Z,32.00
2023-05-16T03:57:40.157Z,36.00
2023-05-16T03:58:40.143Z,36.00
2023-05-16T03:59:40.138Z,40.00
2023-05-16T04:00:40.123Z,44.00
2023-05-16T04:01:40.171Z,48.00
2023-05-16T04:02:40.283Z,52.00
2023-05-16T04:03:40.087Z,52.00
2023-05-16T04:04:40.091Z,56.00
2023-05-16T04:05:40.094Z,64.00
2023-05-16T04:06:40.048Z,64.00
2023-05-16T04:07:40.039Z,64.00
2023-05-16T04:08:40.021Z,72.00
2023-05-16T04:09:40.010Z,76.00
2023-05-16T04:10:40.018Z,84.00
2023-05-16T04:11:39.985Z,84.00
2023-05-16T04:12:39.986Z,92.00
2023-05-16T04:13:40.017Z,100.00
2023-05-16T04:14:39.952Z,112.00
2023-05-16T04:15:39.941Z,116.00
2023-05-16T04:16:39.987Z,120.00
2023-05-16T04:17:40.012Z,128.00
2023-05-16T04:18:40.025Z,132.00
2023-05-16T04:19:39.891Z,140.00
2023-05-16T04:20:39.879Z,144.00
2023-05-16T04:21:39.861Z,152.00
2023-05-16T04:22:39.853Z,160.00
2023-05-16T04:23:39.841Z,172.00
2023-05-16T04:24:39.832Z,192.00
2023-05-16T04:25:39.818Z,208.00
2023-05-16T04:26:39.806Z,220.00
2023-05-16T04:27:39.792Z,224.00
2023-05-16T04:28:39.781Z,248.00
2023-05-16T04:29:39.764Z,256.00
2023-05-16T04:30:39.784Z,272.00
2023-05-16T04:31:39.784Z,296.00
2023-05-16T04:32:39.765Z,316.00
2023-05-16T04:33:39.735Z,332.00
2023-05-16T04:34:40.604Z,364.00
2023-05-16T04:35:39.692Z,384.00
2023-05-16T04:36:39.684Z,388.00
2023-05-16T04:37:39.668Z,392.00
2023-05-16T04:38:39.659Z,416.00
2023-05-16T04:39:39.642Z,428.00
2023-05-16T04:40:39.633Z,412.00
2023-05-16T04:41:39.618Z,372.00
2023-05-16T04:43:39.616Z,308.00
2023-05-16T04:44:39.581Z,292.00
2023-05-16T04:45:39.571Z,288.00
2023-05-16T04:46:39.591Z,280.00
2023-05-16T04:47:39.777Z,288.00
2023-05-16T04:48:39.538Z,292.00
2023-05-16T04:49:39.543Z,304.00
2023-05-16T04:50:39.505Z,316.00
2023-05-16T04:51:39.495Z,328.00
2023-05-16T04:52:39.481Z,324.00
2023-05-16T04:53:39.474Z,300.00
2023-05-16T04:54:39.461Z,288.00
2023-05-16T04:55:39.446Z,276.00
2023-05-16T04:56:39.431Z,280.00
2023-05-16T04:57:39.423Z,292.00
2023-05-16T04:58:42.265Z,292.00
2023-05-16T04:59:39.438Z,288.00
2023-05-16T05:00:39.384Z,272.00
2023-05-16T05:01:39.512Z,256.00
2023-05-16T05:02:39.399Z,248.00
2023-05-16T05:03:39.349Z,244.00
2023-05-16T05:04:39.381Z,244.00
2023-05-16T05:05:39.379Z,240.00
2023-05-16T05:06:39.311Z,240.00
2023-05-16T05:07:39.316Z,236.00
2023-05-16T05:08:39.296Z,240.00
2023-05-16T05:09:39.275Z,252.00
2023-05-16T05:10:39.264Z,264.00
2023-05-16T05:11:39.252Z,280.00
2023-05-16T05:12:39.237Z,300.00
2023-05-16T05:13:39.230Z,324.00
2023-05-16T05:14:39.214Z,344.00
2023-05-16T05:15:39.208Z,364.00
2023-05-16T05:16:39.191Z,380.00
2023-05-16T05:17:39.390Z,384.00
2023-05-16T05:18:39.256Z,392.00
2023-05-16T05:19:39.211Z,396.00
2023-05-16T05:20:39.140Z,400.00
2023-05-16T05:21:39.153Z,412.00
2023-05-16T05:22:39.120Z,420.00
2023-05-16T05:23:39.110Z,428.00
2023-05-16T05:24:39.099Z,432.00
2023-05-16T05:25:39.096Z,436.00
2023-05-16T05:26:39.088Z,432.00
2023-05-16T05:27:39.068Z,432.00
2023-05-16T05:28:39.390Z,424.00
2023-05-16T05:29:39.041Z,408.00
2023-05-16T05:30:41.189Z,400.00
2023-05-16T05:31:39.051Z,384.00
2023-05-16T05:32:39.158Z,376.00
2023-05-16T05:33:38.995Z,376.00
2023-05-16T05:34:38.979Z,372.00
2023-05-16T05:35:38.978Z,364.00
2023-05-16T05:36:38.955Z,364.00
2023-05-16T05:37:38.969Z,372.00
2023-05-16T05:38:38.933Z,380.00
2023-05-16T05:39:38.924Z,400.00
2023-05-16T05:40:38.905Z,408.00
2023-05-16T05:41:38.901Z,412.00
2023-05-16T05:42:38.882Z,420.00
2023-05-16T05:43:38.879Z,424.00
2023-05-16T05:44:38.868Z,420.00
2023-05-16T05:45:38.873Z,416.00
2023-05-16T05:46:38.835Z,416.00
2023-05-16T05:47:38.873Z,416.00
2023-05-16T05:48:38.819Z,404.00
2023-05-16T05:49:38.810Z,396.00
2023-05-16T05:50:38.796Z,388.00
2023-05-16T05:51:38.780Z,372.00
2023-05-16T05:52:38.781Z,360.00
2023-05-16T05:53:38.775Z,348.00
2023-05-16T05:54:38.739Z,344.00
2023-05-16T05:55:38.732Z,340.00
2023-05-16T05:56:38.715Z,336.00
2023-05-16T05:57:38.707Z,340.00
2023-05-16T05:58:38.696Z,340.00
2023-05-16T05:59:38.684Z,348.00
2023-05-16T06:00:38.674Z,356.00
2023-05-16T06:01:38.723Z,368.00
2023-05-16T06:02:38.764Z,380.00
2023-05-16T06:03:38.691Z,392.00
2023-05-16T06:04:38.627Z,396.00
2023-05-16T06:05:38.657Z,404.00
2023-05-16T06:06:38.599Z,408.00
2023-05-16T06:07:38.590Z,412.00
2023-05-16T06:08:38.577Z,400.00
2023-05-16T06:09:38.598Z,392.00
2023-05-16T06:10:38.556Z,388.00
2023-05-16T06:11:38.546Z,392.00
2023-05-16T06:12:38.526Z,396.00
2023-05-16T06:13:38.521Z,400.00
2023-05-16T06:14:38.506Z,408.00
2023-05-16T06:15:38.499Z,428.00
2023-05-16T06:16:38.531Z,448.00
2023-05-16T06:17:38.512Z,472.00
2023-05-16T06:18:38.487Z,476.00
2023-05-16T06:19:38.450Z,480.00
2023-05-16T06:20:38.435Z,476.00
2023-05-16T06:21:38.426Z,472.00
2023-05-16T06:22:38.413Z,476.00
2023-05-16T06:23:38.403Z,476.00
2023-05-16T06:24:38.390Z,476.00
2023-05-16T06:25:38.394Z,480.00
2023-05-16T06:26:38.365Z,488.00
2023-05-16T06:27:38.356Z,496.00
2023-05-16T06:28:38.344Z,508.00
2023-05-16T06:29:38.332Z,528.00
2023-05-16T06:30:38.324Z,552.00
2023-05-16T06:31:38.379Z,568.00
2023-05-16T06:32:38.326Z,588.00
2023-05-16T06:33:38.307Z,604.00
2023-05-16T06:34:38.276Z,620.00
2023-05-16T06:35:38.286Z,648.00
2023-05-16T06:36:38.260Z,676.00
2023-05-16T06:37:38.689Z,692.00
2023-05-16T06:38:38.217Z,708.00
2023-05-16T06:39:38.231Z,724.00
2023-05-16T06:40:38.197Z,760.00
2023-05-16T06:41:38.238Z,796.00
2023-05-16T06:42:38.625Z,840.00
2023-05-16T06:43:38.175Z,880.00
2023-05-16T06:44:38.165Z,908.00
2023-05-16T06:45:38.141Z,940.00
2023-05-16T06:46:38.138Z,976.00
2023-05-16T06:47:38.209Z,1008.00
2023-05-16T06:48:38.109Z,1032.00
2023-05-16T06:49:38.099Z,1040.00
2023-05-16T06:50:38.089Z,1032.00
2023-05-16T06:51:38.071Z,1008.00
2023-05-16T06:52:38.063Z,988.00
2023-05-16T06:53:38.054Z,1024.00
2023-05-16T06:54:38.033Z,1100.00
2023-05-16T06:55:38.033Z,1176.00
2023-05-16T06:56:38.015Z,1240.00
2023-05-16T06:57:38.052Z,1292.00
2023-05-16T06:58:37.992Z,1288.00
2023-05-16T06:59:37.976Z,1204.00
2023-05-16T07:00:37.963Z,1124.00
2023-05-16T07:01:37.996Z,1060.00
2023-05-16T07:02:38.007Z,1024.00
2023-05-16T07:03:38.064Z,976.00
2023-05-16T07:04:37.985Z,880.00
2023-05-16T07:05:38.125Z,808.00
2023-05-16T07:06:37.892Z,808.00
2023-05-16T07:07:37.897Z,756.00
2023-05-16T07:08:37.869Z,728.00
2023-05-16T07:09:37.857Z,724.00
2023-05-16T07:10:37.844Z,744.00
2023-05-16T07:11:37.836Z,736.00
2023-05-16T07:12:37.822Z,700.00
2023-05-16T07:13:37.852Z,656.00
2023-05-16T07:14:37.810Z,632.00
2023-05-16T07:15:37.795Z,572.00
2023-05-16T07:16:37.824Z,544.00
2023-05-16T07:17:37.839Z,568.00
2023-05-16T07:18:37.881Z,548.00
2023-05-16T07:19:37.750Z,564.00
2023-05-16T07:20:37.732Z,584.00
2023-05-16T07:21:37.722Z,584.00
2023-05-16T07:22:37.707Z,604.00
2023-05-16T07:23:37.702Z,612.00
2023-05-16T07:24:37.692Z,628.00
2023-05-16T07:25:37.686Z,628.00
2023-05-16T07:26:37.658Z,616.00
2023-05-16T07:27:37.664Z,652.00
2023-05-16T07:28:37.637Z,664.00
2023-05-16T07:29:37.684Z,668.00
2023-05-16T07:30:37.625Z,684.00
2023-05-16T07:31:37.666Z,704.00
2023-05-16T07:32:37.637Z,740.00
2023-05-16T07:33:37.593Z,764.00
2023-05-16T07:34:37.573Z,816.00
2023-05-16T07:35:37.577Z,928.00
2023-05-16T07:36:37.568Z,960.00
2023-05-16T07:37:37.535Z,992.00
2023-05-16T07:38:37.526Z,1036.00
2023-05-16T07:39:37.511Z,968.00
2023-05-16T07:40:37.500Z,896.00
2023-05-16T07:41:37.497Z,888.00
2023-05-16T07:42:37.485Z,932.00
2023-05-16T07:43:37.487Z,912.00
2023-05-16T07:44:37.456Z,888.00
2023-05-16T07:45:37.549Z,872.00
2023-05-16T07:46:37.516Z,844.00
2023-05-16T07:47:37.511Z,824.00
2023-05-16T07:48:37.405Z,856.00
2023-05-16T07:49:37.400Z,884.00
2023-05-16T07:50:37.383Z,948.00
2023-05-16T07:51:37.378Z,984.00
2023-05-16T07:52:37.361Z,984.00
2023-05-16T07:53:37.353Z,988.00
2023-05-16T07:54:37.345Z,1048.00
2023-05-16T07:55:37.338Z,1060.00
2023-05-16T07:56:37.314Z,1136.00
2023-05-16T07:57:37.305Z,1204.00
2023-05-16T07:58:37.304Z,1256.00
2023-05-16T07:59:37.313Z,1360.00
2023-05-16T08:00:37.285Z,1452.00
2023-05-16T08:01:37.327Z,1572.00
2023-05-16T08:02:37.352Z,1600.00
2023-05-16T08:03:37.394Z,1588.00
2023-05-16T08:04:37.222Z,1576.00
2023-05-16T08:05:37.288Z,1504.00
2023-05-16T08:06:37.209Z,1492.00
2023-05-16T08:07:37.199Z,1524.00
2023-05-16T08:08:37.181Z,1520.00
2023-05-16T08:09:37.176Z,1540.00
2023-05-16T08:10:37.167Z,1528.00
2023-05-16T08:11:37.159Z,1480.00
2023-05-16T08:12:37.136Z,1436.00
2023-05-16T08:13:37.132Z,1464.00
2023-05-16T08:14:37.235Z,1360.00
2023-05-16T08:15:37.105Z,1368.00
2023-05-16T08:16:37.238Z,1280.00
2023-05-16T08:17:37.200Z,1168.00
2023-05-16T08:18:37.082Z,1152.00
2023-05-16T08:19:37.064Z,1076.00
2023-05-16T08:20:37.096Z,1080.00
2023-05-16T08:21:37.041Z,1068.00
2023-05-16T08:22:37.033Z,1040.00
2023-05-16T08:23:37.017Z,1028.00
2023-05-16T08:24:37.011Z,968.00
2023-05-16T08:25:37.018Z,960.00
2023-05-16T08:26:36.986Z,872.00
2023-05-16T08:27:36.973Z,820.00
2023-05-16T08:28:36.964Z,832.00
2023-05-16T08:29:36.950Z,820.00
2023-05-16T08:30:36.954Z,824.00
2023-05-16T08:31:36.965Z,884.00
2023-05-16T08:32:37.050Z,928.00
2023-05-16T08:33:36.977Z,864.00
2023-05-16T08:34:36.906Z,832.00
2023-05-16T08:35:36.894Z,852.00
2023-05-16T08:36:36.878Z,844.00
2023-05-16T08:37:36.878Z,744.00
2023-05-16T08:38:36.875Z,736.00
2023-05-16T08:39:36.852Z,696.00
2023-05-16T08:40:36.848Z,628.00
2023-05-16T08:41:36.818Z,580.00
2023-05-16T08:42:36.819Z,544.00
2023-05-16T08:43:36.796Z,548.00
2023-05-16T08:44:36.788Z,504.00
2023-05-16T08:45:36.778Z,476.00
2023-05-16T08:46:36.829Z,480.00
2023-05-16T08:47:36.926Z,476.00
2023-05-16T08:48:36.753Z,488.00
2023-05-16T08:49:36.758Z,508.00
2023-05-16T08:50:36.729Z,548.00
2023-05-16T08:51:36.713Z,592.00
2023-05-16T08:52:36.707Z,624.00
2023-05-16T08:53:36.690Z,676.00
2023-05-16T08:54:36.693Z,696.00
2023-05-16T08:55:36.690Z,660.00
2023-05-16T08:56:36.661Z,616.00
2023-05-16T08:57:36.644Z,612.00
2023-05-16T08:58:36.639Z,608.00
2023-05-16T08:59:36.624Z,592.00
2023-05-16T09:00:36.650Z,608.00
2023-05-16T09:01:36.633Z,628.00
2023-05-16T09:02:36.601Z,700.00
2023-05-16T09:03:36.622Z,740.00
2023-05-16T09:04:36.615Z,776.00
2023-05-16T09:05:36.596Z,824.00
2023-05-16T09:06:36.549Z,912.00
2023-05-16T09:07:36.536Z,960.00
2023-05-16T09:08:36.529Z,956.00
2023-05-16T09:09:36.513Z,1008.00
2023-05-16T09:10:36.506Z,1056.00
2023-05-16T09:11:37.279Z,1068.00
2023-05-16T09:12:36.490Z,1124.00
2023-05-16T09:13:36.473Z,1120.00
2023-05-16T09:14:36.474Z,1116.00
2023-05-16T09:15:36.466Z,1104.00
2023-05-16T09:16:36.478Z,1116.00
2023-05-16T09:17:39.883Z,1120.00
2023-05-16T09:18:36.490Z,1136.00
2023-05-16T09:19:36.522Z,1176.00
2023-05-16T09:20:36.394Z,1248.00
2023-05-16T09:21:36.437Z,1352.00
2023-05-16T09:22:36.373Z,1444.00
2023-05-16T09:23:37.323Z,1544.00
2023-05-16T09:24:36.348Z,1560.00
2023-05-16T09:25:36.576Z,1508.00
2023-05-16T09:26:36.339Z,1440.00
2023-05-16T09:27:36.326Z,1400.00
2023-05-16T09:28:36.505Z,1344.00
2023-05-16T09:29:37.126Z,1292.00
2023-05-16T09:30:36.282Z,1292.00
2023-05-16T09:31:36.272Z,1372.00
2023-05-16T09:32:36.287Z,1496.00
2023-05-16T09:33:36.249Z,1592.00
2023-05-16T09:34:36.236Z,1844.00
2023-05-16T09:35:45.078Z,2124.00
2023-05-16T09:36:36.214Z,2376.00
2023-05-16T09:37:36.370Z,2596.00
2023-05-16T09:38:36.193Z,2808.00
2023-05-16T09:39:36.178Z,3108.00
2023-05-16T09:40:36.173Z,3336.00
2023-05-16T09:41:36.156Z,3696.00
2023-05-16T09:42:36.145Z,3928.00
2023-05-16T09:43:37.519Z,4100.00
2023-05-16T09:44:36.131Z,3988.00
2023-05-16T09:45:36.109Z,3952.00
2023-05-16T09:46:36.236Z,4216.00
2023-05-16T09:47:36.131Z,3864.00
2023-05-16T09:48:36.086Z,3576.00
2023-05-16T09:49:36.071Z,3408.00
2023-05-16T09:50:36.073Z,3356.00
2023-05-16T09:51:36.050Z,3360.00
2023-05-16T09:52:36.043Z,3276.00
2023-05-16T09:53:36.050Z,3124.00
2023-05-16T09:54:36.088Z,2900.00
2023-05-16T09:55:36.012Z,2768.00
2023-05-16T09:56:36.000Z,2692.00
2023-05-16T09:57:35.989Z,2552.00
2023-05-16T09:58:35.993Z,2368.00
2023-05-16T09:59:35.978Z,2252.00
2023-05-16T10:00:35.974Z,2272.00
2023-05-16T10:01:35.960Z,2088.00
2023-05-16T10:02:36.024Z,1944.00
2023-05-16T10:03:35.997Z,1808.00
2023-05-16T10:04:35.934Z,1748.00
2023-05-16T10:05:35.914Z,1668.00
2023-05-16T10:06:35.904Z,1676.00
2023-05-16T10:07:35.894Z,1576.00
2023-05-16T10:08:35.886Z,1488.00
2023-05-16T10:09:35.908Z,1452.00
2023-05-16T10:10:35.879Z,1336.00
2023-05-16T10:11:35.855Z,1324.00
2023-05-16T10:12:35.847Z,1348.00
2023-05-16T10:13:35.834Z,1276.00
2023-05-16T10:14:35.840Z,1208.00
2023-05-16T10:15:35.813Z,1336.00
2023-05-16T10:16:35.816Z,1424.00
2023-05-16T10:17:35.810Z,1460.00
2023-05-16T10:18:35.845Z,1448.00
2023-05-16T10:19:35.796Z,1416.00
2023-05-16T10:20:35.764Z,1356.00
2023-05-16T10:21:35.781Z,1252.00
2023-05-16T10:22:35.749Z,1124.00
2023-05-16T10:23:35.728Z,1104.00
2023-05-16T10:24:35.732Z,1032.00
2023-05-16T10:25:35.793Z,1072.00
2023-05-16T10:26:35.707Z,1140.00
2023-05-16T10:27:35.691Z,1208.00
2023-05-16T10:28:35.684Z,1256.00
2023-05-16T10:29:46.420Z,1296.00
2023-05-16T10:30:35.658Z,1384.00
2023-05-16T10:31:35.682Z,1460.00
2023-05-16T10:32:35.731Z,1516.00
2023-05-16T10:33:35.622Z,1400.00
2023-05-16T10:34:35.617Z,1228.00
2023-05-16T10:35:35.597Z,1272.00
2023-05-16T10:36:35.592Z,1444.00
2023-05-16T10:37:35.597Z,1612.00
2023-05-16T10:38:35.577Z,1588.00
2023-05-16T10:39:35.559Z,1584.00
2023-05-16T10:40:35.554Z,1700.00
2023-05-16T10:41:35.567Z,1940.00
2023-05-16T10:42:35.536Z,1976.00
2023-05-16T10:43:35.517Z,2044.00
2023-05-16T10:44:35.511Z,2116.00
2023-05-16T10:45:35.569Z,2116.00
2023-05-16T10:46:35.535Z,2416.00
2023-05-16T10:47:35.511Z,2588.00
2023-05-16T10:48:35.468Z,2832.00
2023-05-16T10:49:35.452Z,3072.00
2023-05-16T10:50:35.438Z,2960.00
2023-05-16T10:51:35.428Z,2724.00
2023-05-16T10:52:35.522Z,2728.00
2023-05-16T10:54:35.402Z,2364.00
2023-05-16T10:56:35.378Z,1840.00
2023-05-16T10:57:35.419Z,1492.00
2023-05-16T10:58:35.357Z,1448.00
2023-05-16T10:59:35.340Z,1576.00
2023-05-16T11:00:35.336Z,1728.00
2023-05-16T11:01:35.581Z,1620.00
2023-05-16T11:02:35.420Z,1364.00
2023-05-16T11:03:35.395Z,1244.00
2023-05-16T11:04:35.293Z,1296.00
2023-05-16T11:05:35.274Z,1340.00
2023-05-16T11:06:35.306Z,1496.00
2023-05-16T11:07:35.266Z,1452.00
2023-05-16T11:08:35.247Z,1424.00
2023-05-16T11:09:35.232Z,1440.00
2023-05-16T11:10:35.225Z,1380.00
2023-05-16T11:11:35.212Z,1324.00
2023-05-16T11:12:35.215Z,1436.00
2023-05-16T11:13:35.244Z,1408.00
2023-05-16T11:14:35.197Z,1344.00
2023-05-16T11:15:35.178Z,1224.00
2023-05-16T11:16:35.238Z,1148.00
2023-05-16T11:17:35.166Z,1172.00
2023-05-16T11:18:35.216Z,1136.00
2023-05-16T11:19:35.160Z,1112.00
2023-05-16T11:20:35.141Z,1144.00
2023-05-16T11:21:35.098Z,1208.00
2023-05-16T11:22:35.115Z,1376.00
2023-05-16T11:23:35.081Z,1660.00
2023-05-16T11:24:35.071Z,1928.00
2023-05-16T11:25:35.064Z,1812.00
2023-05-16T11:26:35.048Z,1748.00
2023-05-16T11:27:35.033Z,1624.00
2023-05-16T11:28:35.043Z,1444.00
2023-05-16T11:29:35.080Z,1348.00
2023-05-16T11:30:35.008Z,1348.00
2023-05-16T11:31:34.997Z,1496.00
2023-05-16T11:32:35.089Z,1568.00
2023-05-16T11:33:34.971Z,1636.00
2023-05-16T11:34:34.959Z,1668.00
2023-05-16T11:35:34.944Z,1792.00
2023-05-16T11:36:34.937Z,1652.00
2023-05-16T11:37:34.928Z,1552.00
2023-05-16T11:38:34.914Z,1652.00
2023-05-16T11:39:34.949Z,1588.00
2023-05-16T11:40:34.891Z,1700.00
2023-05-16T11:41:34.879Z,1864.00
2023-05-16T11:42:34.872Z,1928.00
2023-05-16T11:43:34.854Z,1872.00
2023-05-16T11:44:34.867Z,1856.00
2023-05-16T11:45:34.889Z,1896.00
2023-05-16T11:46:34.868Z,1960.00
2023-05-16T11:47:35.063Z,2072.00
2023-05-16T11:48:36.469Z,2012.00
2023-05-16T11:49:34.787Z,1964.00
2023-05-16T11:50:34.782Z,1980.00
2023-05-16T11:51:34.775Z,2192.00
2023-05-16T11:52:34.756Z,2120.00
2023-05-16T11:53:34.757Z,2128.00
2023-05-16T11:54:34.740Z,2416.00
2023-05-16T11:56:34.715Z,2532.00
2023-05-16T11:57:34.699Z,2404.00
2023-05-16T11:58:34.696Z,2340.00
2023-05-16T11:59:34.698Z,2280.00
2023-05-16T12:00:34.678Z,2208.00
2023-05-16T12:01:34.696Z,2212.00
2023-05-16T12:02:34.798Z,2088.00
2023-05-16T12:03:34.784Z,2220.00
2023-05-16T12:04:34.943Z,2164.00
2023-05-16T12:05:35.562Z,2204.00
2023-05-16T12:06:34.606Z,2188.00
2023-05-16T12:07:34.592Z,2272.00
2023-05-16T12:08:34.584Z,2208.00
2023-05-16T12:09:34.577Z,2060.00
2023-05-16T12:10:35.099Z,2052.00
2023-05-16T12:11:34.549Z,2164.00
2023-05-16T12:12:34.544Z,2128.00
2023-05-16T12:13:34.524Z,2236.00
2023-05-16T12:14:34.518Z,2128.00
2023-05-16T12:15:34.516Z,2156.00
2023-05-16T12:16:34.591Z,2212.00
2023-05-16T12:17:34.649Z,2080.00
2023-05-16T12:18:34.522Z,1972.00
2023-05-16T12:19:34.543Z,1760.00
2023-05-16T12:20:34.456Z,1672.00
2023-05-16T12:21:34.439Z,1644.00
2023-05-16T12:22:34.456Z,1720.00
2023-05-16T12:23:34.452Z,1796.00
2023-05-16T12:24:34.422Z,1740.00
2023-05-16T12:25:34.397Z,1660.00
2023-05-16T12:26:34.390Z,1744.00
2023-05-16T12:27:34.390Z,1668.00
2023-05-16T12:28:34.392Z,1656.00
2023-05-16T12:29:34.362Z,1528.00
2023-05-16T12:30:34.367Z,1252.00
2023-05-16T12:31:34.417Z,1124.00
2023-05-16T12:32:34.452Z,1056.00
2023-05-16T12:33:34.397Z,1052.00
2023-05-16T12:34:34.304Z,1036.00
2023-05-16T12:35:34.291Z,980.00
2023-05-16T12:36:34.309Z,988.00
2023-05-16T12:37:34.270Z,1064.00
2023-05-16T12:38:34.264Z,1292.00
2023-05-16T12:39:35.012Z,1228.00
2023-05-16T12:40:34.253Z,1164.00